createdAt,value
2019-05-22T00:02:27.602Z,2.30
2019-05-22T00:05:18.992Z,0.90
2019-05-22T00:07:53.077Z,1.33
2019-05-22T00:10:28.826Z,1.37
2019-05-22T00:13:03.812Z,1.10
2019-05-22T00:15:39.511Z,0.87
2019-05-22T00:18:12.455Z,0.90
2019-05-22T00:20:45.199Z,0.80
2019-05-22T00:23:18.822Z,0.70
2019-05-22T00:25:54.433Z,0.60
2019-05-22T00:28:27.611Z,0.80
2019-05-22T00:31:00.109Z,1.00
2019-05-22T00:33:36.215Z,1.07
2019-05-22T00:36:08.356Z,0.93
2019-05-22T00:38:44.499Z,0.97
2019-05-22T00:41:21.837Z,0.80
2019-05-22T00:43:56.991Z,0.60
2019-05-22T00:46:30.084Z,0.60
2019-05-22T00:49:04.550Z,0.60
2019-05-22T00:51:54.978Z,0.73
2019-05-22T00:54:44.395Z,0.60
2019-05-22T00:57:42.098Z,0.70
2019-05-22T01:00:28.763Z,0.60
2019-05-22T01:03:03.035Z,0.80
2019-05-22T01:05:37.441Z,0.60
2019-05-22T01:08:13.668Z,0.50
2019-05-22T01:10:50.081Z,0.63
2019-05-22T01:13:23.073Z,0.80
2019-05-22T01:15:56.283Z,0.70
2019-05-22T01:18:30.128Z,0.70
2019-05-22T01:21:04.543Z,0.80
2019-05-22T01:23:42.802Z,0.80
2019-05-22T01:26:19.139Z,0.70
2019-05-22T01:28:51.680Z,0.90
2019-05-22T01:31:31.407Z,0.90
2019-05-22T01:34:10.996Z,0.60
2019-05-22T01:36:45.324Z,0.80
2019-05-22T01:39:44.139Z,1.57
2019-05-22T01:42:22.799Z,0.90
2019-05-22T01:45:03.231Z,0.70
2019-05-22T01:47:44.120Z,0.80
2019-05-22T01:50:27.973Z,0.70
2019-05-22T01:53:00.595Z,1.00
2019-05-22T01:55:34.549Z,1.40
2019-05-22T01:58:08.275Z,1.40
2019-05-22T02:00:44.376Z,1.50
2019-05-22T02:03:20.714Z,1.10
2019-05-22T02:05:54.381Z,1.50
2019-05-22T02:08:33.060Z,1.20
2019-05-22T02:11:05.725Z,1.30
2019-05-22T02:13:45.052Z,1.33
2019-05-22T02:16:17.449Z,1.20
2019-05-22T02:18:52.592Z,1.10
2019-05-22T02:21:27.547Z,1.57
2019-05-22T02:24:01.150Z,1.27
2019-05-22T02:26:34.413Z,1.13
2019-05-22T02:29:11.540Z,1.10
2019-05-22T02:31:44.728Z,1.53
2019-05-22T02:34:18.300Z,1.30
2019-05-22T02:36:50.547Z,1.47
2019-05-22T02:39:35.377Z,1.77
2019-05-22T02:42:15.148Z,1.97
2019-05-22T02:44:49.026Z,2.03
2019-05-22T02:47:22.382Z,3.20
2019-05-22T02:49:56.052Z,3.00
2019-05-22T02:52:30.912Z,2.90
2019-05-22T02:55:05.909Z,3.60
2019-05-22T02:57:37.823Z,4.70
2019-05-22T03:00:11.410Z,4.10
2019-05-22T03:02:53.904Z,4.10
2019-05-22T03:05:26.862Z,5.10
2019-05-22T03:07:59.619Z,5.00
2019-05-22T03:10:32.802Z,4.90
2019-05-22T03:13:08.771Z,4.83
2019-05-22T03:15:41.308Z,5.00
2019-05-22T03:18:15.029Z,6.03
2019-05-22T03:20:48.579Z,5.43
2019-05-22T03:23:45.138Z,5.43
2019-05-22T03:26:21.809Z,6.30
2019-05-22T03:28:56.675Z,6.40
2019-05-22T03:31:29.071Z,5.83
2019-05-22T03:34:04.096Z,5.80
2019-05-22T03:36:39.043Z,5.10
2019-05-22T03:39:12.850Z,4.47
2019-05-22T03:41:47.968Z,3.43
2019-05-22T03:44:22.725Z,2.97
2019-05-22T03:46:59.461Z,2.60
2019-05-22T03:49:31.540Z,3.00
2019-05-22T03:52:09.729Z,3.23
2019-05-22T03:54:42.008Z,2.63
2019-05-22T03:57:14.496Z,2.83
2019-05-22T03:59:49.036Z,3.00
2019-05-22T04:02:25.027Z,2.80
2019-05-22T04:04:58.924Z,2.70
2019-05-22T04:07:30.844Z,2.53
2019-05-22T04:10:05.352Z,2.63
2019-05-22T04:12:40.256Z,2.20
2019-05-22T04:15:13.454Z,2.40
2019-05-22T04:17:46.597Z,2.00
2019-05-22T04:20:21.099Z,2.23
2019-05-22T04:22:57.858Z,2.30
2019-05-22T04:25:29.825Z,2.50
2019-05-22T04:28:04.225Z,2.10
2019-05-22T04:30:38.401Z,2.27
2019-05-22T04:33:11.542Z,1.80
2019-05-22T04:35:46.127Z,2.50
2019-05-22T04:38:21.995Z,2.67
2019-05-22T04:40:58.031Z,3.00
2019-05-22T04:43:34.860Z,2.93
2019-05-22T04:46:11.489Z,2.80
2019-05-22T04:48:46.598Z,3.27
2019-05-22T04:51:30.230Z,2.50
2019-05-22T04:54:02.270Z,3.20
2019-05-22T04:56:35.775Z,2.70
2019-05-22T04:59:10.491Z,2.80
2019-05-22T05:01:42.198Z,3.57
2019-05-22T05:04:15.072Z,2.43
2019-05-22T05:06:50.013Z,3.07
2019-05-22T05:09:23.951Z,3.37
2019-05-22T05:11:55.197Z,2.57
2019-05-22T05:14:27.212Z,2.77
2019-05-22T05:16:59.506Z,2.33
2019-05-22T05:19:32.653Z,1.90
2019-05-22T05:22:06.491Z,1.70
2019-05-22T05:24:39.226Z,1.73
2019-05-22T05:27:12.564Z,1.50
2019-05-22T05:29:47.925Z,1.60
2019-05-22T05:32:20.269Z,1.90
2019-05-22T05:34:57.685Z,2.40
2019-05-22T05:37:29.439Z,1.67
2019-05-22T05:40:39.934Z,2.40
2019-05-22T05:43:16.131Z,1.80
2019-05-22T05:45:50.026Z,1.73
2019-05-22T05:48:23.972Z,1.43
2019-05-22T05:51:23.290Z,1.87
2019-05-22T05:54:09.107Z,2.23
2019-05-22T05:56:45.470Z,1.67
2019-05-22T05:59:18.908Z,1.93
2019-05-22T06:01:58.187Z,1.33
2019-05-22T06:04:37.751Z,2.43
2019-05-22T06:07:21.794Z,1.67
2019-05-22T06:10:34.487Z,1.93
2019-05-22T06:13:09.819Z,1.67
2019-05-22T06:16:31.201Z,1.70
2019-05-22T06:19:04.465Z,2.30
2019-05-22T06:21:44.302Z,2.10
2019-05-22T06:24:25.455Z,2.10
2019-05-22T06:27:22.189Z,2.60
2019-05-22T06:30:04.100Z,2.47
2019-05-22T06:33:15.375Z,2.33
2019-05-22T06:35:50.708Z,2.60
2019-05-22T06:39:12.777Z,2.23
2019-05-22T06:41:45.377Z,1.60
2019-05-22T06:44:36.290Z,1.87
2019-05-22T06:47:16.019Z,1.90
2019-05-22T06:49:53.635Z,1.63
2019-05-22T06:52:27.496Z,2.60
2019-05-22T06:54:59.160Z,2.27
2019-05-22T06:57:36.116Z,1.80
2019-05-22T07:00:21.770Z,1.63
2019-05-22T07:02:55.856Z,1.20
2019-05-22T07:05:29.108Z,1.63
2019-05-22T07:08:05.709Z,2.03
2019-05-22T07:10:39.804Z,1.70
2019-05-22T07:13:11.856Z,1.70
2019-05-22T07:15:48.760Z,2.20
2019-05-22T07:18:24.262Z,1.80
2019-05-22T07:21:00.981Z,2.40
2019-05-22T07:23:34.319Z,2.87
2019-05-22T07:26:06.150Z,2.90
2019-05-22T07:28:42.132Z,3.47
2019-05-22T07:31:15.451Z,3.50
2019-05-22T07:33:49.924Z,3.60
2019-05-22T07:36:23.912Z,3.80
2019-05-22T07:38:58.668Z,3.87
2019-05-22T07:41:31.227Z,2.53
2019-05-22T07:44:02.939Z,2.60
2019-05-22T07:46:36.474Z,2.43
2019-05-22T07:49:09.118Z,2.60
2019-05-22T07:51:53.226Z,2.27
2019-05-22T07:54:17.824Z,2.40
2019-05-22T07:56:51.252Z,2.33
2019-05-22T07:59:24.303Z,2.90
2019-05-22T08:01:58.479Z,2.57
2019-05-22T08:04:31.687Z,2.80
2019-05-22T08:07:07.409Z,3.00
2019-05-22T08:09:40.188Z,2.70
2019-05-22T08:12:13.024Z,3.40
2019-05-22T08:14:45.346Z,2.77
2019-05-22T08:17:18.932Z,3.00
2019-05-22T08:19:53.167Z,3.63
2019-05-22T08:22:27.178Z,3.90
2019-05-22T08:25:01.923Z,3.40
2019-05-22T08:27:33.208Z,3.00
2019-05-22T08:30:09.201Z,3.83
2019-05-22T08:32:43.160Z,3.07
2019-05-22T08:35:18.188Z,2.90
2019-05-22T08:37:51.297Z,2.60
2019-05-22T08:40:23.785Z,2.80
2019-05-22T08:42:57.748Z,2.27
2019-05-22T08:45:30.331Z,2.90
2019-05-22T08:48:04.334Z,1.97
2019-05-22T08:50:40.334Z,1.40
2019-05-22T08:53:14.209Z,2.33
2019-05-22T08:55:47.671Z,1.70
2019-05-22T08:58:20.334Z,1.50
2019-05-22T09:00:53.714Z,1.60
2019-05-22T09:03:27.384Z,1.60
2019-05-22T09:05:59.369Z,1.93
2019-05-22T09:08:33.171Z,2.27
2019-05-22T09:11:07.139Z,2.30
2019-05-22T09:13:41.061Z,4.37
2019-05-22T09:16:16.695Z,4.13
2019-05-22T09:18:51.381Z,3.70
2019-05-22T09:21:25.037Z,3.13
2019-05-22T09:23:58.268Z,2.97
2019-05-22T09:26:33.525Z,3.50
2019-05-22T09:29:06.433Z,2.40
2019-05-22T09:31:41.952Z,3.90
2019-05-22T09:34:16.145Z,2.60
2019-05-22T09:36:47.967Z,2.87
2019-05-22T09:39:19.703Z,3.60
2019-05-22T09:41:52.509Z,3.53
2019-05-22T09:44:23.974Z,3.00
2019-05-22T09:46:56.776Z,3.33
2019-05-22T09:49:29.689Z,3.30
2019-05-22T09:52:05.185Z,2.93
2019-05-22T09:54:37.848Z,3.10
2019-05-22T09:57:11.097Z,3.80
2019-05-22T09:59:45.954Z,3.93
2019-05-22T10:02:18.724Z,4.60
2019-05-22T10:04:52.650Z,4.73
2019-05-22T10:07:28.220Z,4.67
2019-05-22T10:10:00.828Z,3.87
2019-05-22T10:12:33.195Z,4.40
2019-05-22T10:15:08.264Z,5.63
2019-05-22T10:17:45.628Z,5.20
2019-05-22T10:20:17.974Z,4.50
2019-05-22T10:22:51.750Z,4.53
2019-05-22T10:25:24.619Z,4.57
2019-05-22T10:27:59.377Z,4.90
2019-05-22T10:30:34.360Z,3.80
2019-05-22T10:33:08.449Z,4.57
2019-05-22T10:35:43.604Z,3.77
2019-05-22T10:38:18.642Z,3.00
2019-05-22T10:40:52.524Z,3.30
2019-05-22T10:43:23.872Z,3.20
2019-05-22T10:45:59.569Z,3.77
2019-05-22T10:48:34.019Z,3.30
2019-05-22T10:51:06.854Z,3.97
2019-05-22T10:53:42.140Z,2.50
2019-05-22T10:56:14.971Z,3.30
2019-05-22T10:58:48.293Z,3.07
2019-05-22T11:01:20.822Z,3.00
2019-05-22T11:03:55.126Z,2.90
2019-05-22T11:06:27.127Z,2.60
2019-05-22T11:09:01.818Z,2.93
2019-05-22T11:11:34.748Z,3.03
2019-05-22T11:14:09.774Z,2.60
2019-05-22T11:16:44.152Z,2.47
2019-05-22T11:19:17.863Z,3.33
2019-05-22T11:21:52.105Z,3.00
2019-05-22T11:24:26.363Z,3.73
2019-05-22T11:27:01.158Z,3.57
2019-05-22T11:29:33.233Z,4.20
2019-05-22T11:32:05.226Z,3.43
2019-05-22T11:34:38.466Z,5.33
2019-05-22T11:37:11.959Z,5.40
2019-05-22T11:39:45.381Z,4.30
2019-05-22T11:42:18.726Z,6.17
2019-05-22T11:44:51.016Z,5.30
2019-05-22T11:47:24.002Z,6.10
2019-05-22T11:49:58.555Z,5.57
2019-05-22T11:52:31.346Z,4.23
2019-05-22T11:55:06.103Z,5.23
2019-05-22T11:57:38.077Z,4.00
2019-05-22T12:00:10.789Z,4.63
2019-05-22T12:02:46.797Z,4.93
2019-05-22T12:05:20.023Z,4.37
2019-05-22T12:07:52.729Z,3.70
2019-05-22T12:10:25.469Z,4.47
2019-05-22T12:12:58.871Z,4.33
2019-05-22T12:15:31.149Z,3.10
2019-05-22T12:18:05.049Z,3.80
2019-05-22T12:20:40.052Z,4.40
2019-05-22T12:23:12.268Z,4.50
2019-05-22T12:25:45.623Z,4.20
2019-05-22T12:28:18.620Z,3.87
2019-05-22T12:30:50.247Z,4.97
2019-05-22T12:33:24.751Z,4.10
2019-05-22T12:35:57.405Z,3.87
2019-05-22T12:38:31.961Z,3.37
2019-05-22T12:41:05.288Z,2.80
2019-05-22T12:43:36.485Z,2.90
2019-05-22T12:46:10.448Z,2.60
2019-05-22T12:48:44.696Z,2.63
2019-05-22T12:51:17.380Z,2.93
2019-05-22T12:53:51.345Z,2.53
2019-05-22T12:56:24.329Z,3.40
2019-05-22T12:58:58.444Z,3.17
2019-05-22T13:01:32.601Z,3.37
2019-05-22T13:04:09.077Z,4.53
2019-05-22T13:06:44.289Z,4.67
2019-05-22T13:09:16.843Z,4.90
2019-05-22T13:11:50.395Z,5.27
2019-05-22T13:14:24.845Z,5.27
2019-05-22T13:17:00.682Z,6.50
2019-05-22T13:19:35.247Z,7.67
2019-05-22T13:22:12.703Z,6.00
2019-05-22T13:24:45.153Z,6.10
2019-05-22T13:27:19.889Z,5.90
2019-05-22T13:29:53.803Z,6.40
2019-05-22T13:32:29.083Z,5.73
2019-05-22T13:35:02.752Z,6.33
2019-05-22T13:37:37.173Z,6.47
2019-05-22T13:40:26.074Z,6.17
2019-05-22T13:42:43.421Z,6.80
2019-05-22T13:45:28.823Z,7.20
2019-05-22T13:48:03.474Z,5.90
2019-05-22T13:50:37.307Z,6.93
2019-05-22T13:53:11.086Z,7.10
2019-05-22T13:55:42.970Z,6.40
2019-05-22T13:58:16.038Z,6.70
2019-05-22T14:00:47.977Z,6.67
2019-05-22T14:03:22.071Z,6.53
2019-05-22T14:05:55.504Z,6.33
2019-05-22T14:08:27.195Z,4.63
2019-05-22T14:11:00.660Z,5.60
2019-05-22T14:13:34.873Z,6.00
2019-05-22T14:16:08.682Z,5.03
2019-05-22T14:18:42.424Z,5.20
2019-05-22T14:21:15.910Z,4.20
2019-05-22T14:23:47.806Z,5.50
2019-05-22T14:26:21.873Z,4.30
2019-05-22T14:28:56.094Z,4.70
2019-05-22T14:31:31.472Z,4.80
2019-05-22T14:34:05.319Z,4.10
2019-05-22T14:36:39.679Z,3.93
2019-05-22T14:39:12.858Z,4.80
2019-05-22T14:41:45.220Z,4.50
2019-05-22T14:44:18.001Z,4.20
2019-05-22T14:46:52.339Z,5.53
2019-05-22T14:49:23.977Z,4.27
2019-05-22T14:51:58.227Z,5.17
2019-05-22T14:54:32.565Z,5.37
2019-05-22T14:57:07.003Z,5.50
2019-05-22T14:59:40.148Z,6.13
2019-05-22T15:02:12.197Z,5.10
2019-05-22T15:04:45.088Z,5.03
2019-05-22T15:07:18.410Z,5.20
2019-05-22T15:09:50.536Z,4.90
2019-05-22T15:12:24.304Z,4.67
2019-05-22T15:14:57.647Z,6.00
2019-05-22T15:17:33.043Z,5.20
2019-05-22T15:20:05.436Z,5.63
2019-05-22T15:22:39.031Z,4.73
2019-05-22T15:25:11.583Z,5.10
2019-05-22T15:27:43.239Z,5.80
2019-05-22T15:30:15.392Z,4.90
2019-05-22T15:32:49.768Z,5.40
2019-05-22T15:35:21.245Z,5.07
2019-05-22T15:37:55.787Z,4.87
2019-05-22T15:40:28.121Z,6.20
2019-05-22T15:43:04.228Z,5.43
2019-05-22T15:45:37.303Z,5.53
2019-05-22T15:48:14.991Z,6.03
2019-05-22T15:50:48.008Z,6.47
2019-05-22T15:53:23.875Z,6.70
2019-05-22T15:55:58.818Z,7.13
2019-05-22T15:58:31.143Z,7.80
2019-05-22T16:01:05.553Z,7.30
2019-05-22T16:03:46.052Z,7.90
2019-05-22T16:06:19.220Z,8.13
2019-05-22T16:08:52.143Z,7.23
2019-05-22T16:11:27.731Z,8.00
2019-05-22T16:14:02.097Z,7.43
2019-05-22T16:16:33.948Z,9.07
2019-05-22T16:19:07.574Z,9.17
2019-05-22T16:21:43.329Z,9.80
2019-05-22T16:24:15.490Z,8.63
2019-05-22T16:26:47.589Z,9.90
2019-05-22T16:29:22.767Z,9.60
2019-05-22T16:31:55.815Z,10.20
2019-05-22T16:34:30.406Z,9.73
2019-05-22T16:37:03.902Z,8.17
2019-05-22T16:39:39.905Z,9.50
2019-05-22T16:42:12.633Z,9.27
2019-05-22T16:44:46.600Z,9.30
2019-05-22T16:47:20.663Z,9.37
2019-05-22T16:49:54.624Z,9.93
2019-05-22T16:52:29.765Z,9.17
2019-05-22T16:55:02.803Z,10.07
2019-05-22T16:57:36.969Z,9.70
2019-05-22T17:00:11.792Z,10.47
2019-05-22T17:02:47.135Z,10.90
2019-05-22T17:05:20.891Z,10.40
2019-05-22T17:07:54.705Z,10.20
2019-05-22T17:10:30.463Z,10.47
2019-05-22T17:13:06.020Z,10.30
2019-05-22T17:15:40.770Z,9.30
2019-05-22T17:18:13.136Z,9.60
2019-05-22T17:20:47.099Z,10.57
2019-05-22T17:23:21.611Z,10.33
2019-05-22T17:25:56.618Z,9.80
2019-05-22T17:28:36.594Z,11.67
2019-05-22T17:31:11.507Z,11.37
2019-05-22T17:33:47.208Z,11.10
2019-05-22T17:36:21.135Z,10.83
2019-05-22T17:38:55.124Z,12.73
2019-05-22T17:41:29.560Z,12.87
2019-05-22T17:44:04.218Z,12.53
2019-05-22T17:46:38.590Z,12.07
2019-05-22T17:49:12.007Z,13.57
2019-05-22T17:51:47.493Z,12.40
2019-05-22T17:54:23.501Z,12.90
2019-05-22T17:56:56.245Z,13.70
2019-05-22T17:59:28.146Z,12.83
2019-05-22T18:02:01.764Z,13.60
2019-05-22T18:04:34.924Z,13.83
2019-05-22T18:07:08.409Z,11.43
2019-05-22T18:09:41.223Z,13.63
2019-05-22T18:12:13.411Z,13.57
2019-05-22T18:14:45.852Z,13.17
2019-05-22T18:17:20.336Z,13.93
2019-05-22T18:19:55.879Z,11.93
2019-05-22T18:22:27.904Z,13.47
2019-05-22T18:25:03.285Z,12.10
2019-05-22T18:27:36.584Z,12.33
2019-05-22T18:30:09.527Z,11.43
2019-05-22T18:32:42.588Z,13.83
2019-05-22T18:35:16.087Z,13.73
2019-05-22T18:37:49.880Z,12.10
2019-05-22T18:40:23.974Z,13.20
2019-05-22T18:42:56.885Z,12.53
2019-05-22T18:45:28.793Z,11.57
2019-05-22T18:48:01.232Z,14.20
2019-05-22T18:50:35.652Z,13.43
2019-05-22T18:53:08.290Z,13.63
2019-05-22T18:55:40.121Z,11.40
2019-05-22T18:58:12.328Z,13.20
2019-05-22T19:00:45.268Z,12.90
2019-05-22T19:03:20.756Z,12.77
2019-05-22T19:05:54.623Z,12.27
2019-05-22T19:08:28.209Z,13.50
2019-05-22T19:11:03.304Z,13.00
2019-05-22T19:13:36.099Z,12.20
2019-05-22T19:16:10.137Z,12.87
2019-05-22T19:18:45.691Z,11.97
2019-05-22T19:21:18.199Z,12.00
2019-05-22T19:23:52.677Z,11.50
2019-05-22T19:26:26.149Z,14.13
2019-05-22T19:29:00.316Z,13.27
2019-05-22T19:31:32.478Z,12.00
2019-05-22T19:34:06.517Z,11.97
2019-05-22T19:36:40.262Z,12.73
2019-05-22T19:39:12.451Z,12.13
2019-05-22T19:41:59.884Z,11.60
2019-05-22T19:44:18.487Z,11.73
2019-05-22T19:46:51.994Z,11.30
2019-05-22T19:49:25.061Z,11.70
2019-05-22T19:51:57.640Z,14.67
2019-05-22T19:54:29.758Z,12.23
2019-05-22T19:57:01.474Z,11.10
2019-05-22T19:59:33.581Z,10.30
2019-05-22T20:02:10.190Z,10.07
2019-05-22T20:04:44.728Z,10.63
2019-05-22T20:07:17.675Z,10.27
2019-05-22T20:09:50.949Z,11.67
2019-05-22T20:12:25.017Z,11.60
2019-05-22T20:14:57.046Z,10.67
2019-05-22T20:17:30.717Z,11.00
2019-05-22T20:20:05.867Z,10.10
2019-05-22T20:22:40.157Z,10.10
2019-05-22T20:25:13.955Z,12.53
2019-05-22T20:27:45.890Z,10.50
2019-05-22T20:30:22.936Z,9.37
2019-05-22T20:32:57.447Z,10.53
2019-05-22T20:35:30.652Z,9.30
2019-05-22T20:38:06.190Z,10.37
2019-05-22T20:40:39.983Z,10.30
2019-05-22T20:43:13.078Z,9.80
2019-05-22T20:45:46.451Z,10.50
2019-05-22T20:48:28.156Z,11.30
2019-05-22T20:51:04.011Z,10.70
2019-05-22T20:53:52.889Z,9.23
2019-05-22T20:56:14.115Z,9.63
2019-05-22T20:58:48.242Z,11.07
2019-05-22T21:01:22.066Z,9.70
2019-05-22T21:03:53.676Z,9.60
2019-05-22T21:06:29.086Z,10.47
2019-05-22T21:09:01.970Z,9.67
2019-05-22T21:11:36.410Z,10.27
2019-05-22T21:14:08.439Z,10.10
2019-05-22T21:16:41.360Z,9.60
2019-05-22T21:19:13.642Z,10.70
2019-05-22T21:21:48.442Z,10.30
2019-05-22T21:24:21.875Z,10.83
2019-05-22T21:26:56.454Z,9.93
2019-05-22T21:29:28.664Z,10.97
2019-05-22T21:32:01.108Z,9.70
2019-05-22T21:34:33.881Z,10.50
2019-05-22T21:37:11.270Z,10.93
2019-05-22T21:39:43.282Z,10.70
2019-05-22T21:42:18.132Z,9.27
2019-05-22T21:44:57.991Z,10.20
2019-05-22T21:47:31.189Z,9.00
2019-05-22T21:50:05.087Z,9.57
2019-05-22T21:52:37.401Z,10.30
2019-05-22T21:55:12.655Z,9.03
2019-05-22T21:57:46.318Z,9.70
2019-05-22T22:00:40.666Z,10.87
2019-05-22T22:03:14.621Z,10.80
2019-05-22T22:05:47.420Z,9.90
2019-05-22T22:08:19.051Z,10.10
2019-05-22T22:10:53.474Z,9.50
2019-05-22T22:13:25.017Z,10.57
2019-05-22T22:15:57.662Z,8.80
2019-05-22T22:18:31.173Z,8.73
2019-05-22T22:21:05.976Z,8.30
2019-05-22T22:23:44.589Z,9.10
2019-05-22T22:26:25.612Z,9.20
2019-05-22T22:28:53.405Z,9.20
2019-05-22T22:31:28.805Z,9.70
2019-05-22T22:34:10.469Z,10.50
2019-05-22T22:36:43.627Z,11.43
2019-05-22T22:39:17.883Z,10.47
2019-05-22T22:41:53.544Z,10.23
2019-05-22T22:44:25.784Z,9.33
2019-05-22T22:47:05.779Z,9.83
2019-05-22T22:49:40.478Z,10.10
2019-05-22T22:52:16.263Z,10.27
2019-05-22T22:54:48.533Z,9.37
2019-05-22T22:57:22.802Z,11.50
2019-05-22T22:59:56.657Z,9.70
2019-05-22T23:02:30.853Z,9.63
2019-05-22T23:05:04.780Z,10.20
2019-05-22T23:07:41.445Z,11.03
2019-05-22T23:10:14.531Z,9.33
2019-05-22T23:12:48.810Z,9.97
2019-05-22T23:15:23.991Z,10.37
2019-05-22T23:17:56.698Z,9.63
2019-05-22T23:20:29.108Z,9.80
2019-05-22T23:23:01.301Z,8.43
2019-05-22T23:25:35.209Z,8.30
2019-05-22T23:28:08.454Z,9.27
2019-05-22T23:30:43.025Z,8.83
2019-05-22T23:33:16.585Z,9.37
2019-05-22T23:35:52.079Z,8.90
2019-05-22T23:38:26.105Z,10.47
2019-05-22T23:41:00.112Z,8.33
2019-05-22T23:43:32.318Z,8.20
2019-05-22T23:46:06.032Z,9.17
2019-05-22T23:48:41.640Z,9.07
2019-05-22T23:51:12.909Z,7.93
2019-05-22T23:53:48.636Z,7.33
2019-05-22T23:56:22.690Z,8.83
2019-05-22T23:58:56.656Z,9.03
